Список аэропортов
Фактическая погода:

24 мая, 15:50
Температура: +17°C (+16.3*)
Ветер: юго-восточный 5 м/с
Давление: *758 мм
неб. 1200 м
разорв. обл.
6000 м
Время (МСК)Темп. СВетерВлажностьДавлениеОблачностьОсадки
15:00+17Ю, 2 м/с50%1011 гПаоблачно
16:00+17Ю, 3 м/с49%1011 гПаоблачно
17:00+17Ю, 2 м/с49%1011 гПаоблачно
18:00+16Ю, 3 м/с50%1012 гПаоблачно
19:00+15Ю, 2 м/с52%1012 гПаоблачно
20:00+14Ю, 2 м/с56%1011 гПаоблачно
21:00+13ЮЗ, 2 м/с62%1011 гПаоблачно
22:00+11ЮЗ, 1 м/с72%1011 гПаоблачно
23:00+10Ю, 1 м/с86%1011 гПаоблачно
25 мая
00:00+8ЮЗ, 1 м/с94%1011 гПаоблачно
01:00+7ЮЗ, 1 м/с96%1011 гПамалооблачно
02:00+6З, 1 м/с97%1010 гПаоблачно
03:00+6ЮЗ, 1 м/с98%1010 гПаоблачно
04:00+5ЮЗ, 1 м/с99%1009 гПамалооблачно
05:00+4ЮЗ, 1 м/с100%1009 гПас прояснениями
06:00+6ЮЗ, 1 м/с98%1009 гПаоблачно
07:00+8З, 1 м/с93%1008 гПаоблачно
08:00+11СЗ, 2 м/с80%1008 гПаоблачно
09:00+14З, 1 м/с58%1007 гПаоблачно
10:00+16З, 2 м/с49%1007 гПаоблачно
11:00+18З, 3 м/с41%1007 гПаоблачно
12:00+19З, 3 м/с38%1006 гПаоблачно
13:00+19З, 3 м/с37%1006 гПаоблачно
14:00+19З, 4 м/с40%1006 гПаоблачносл. дождь
15:00+20З, 3 м/с38%1006 гПас прояснениямисл. дождь
16:00+19З, 4 м/с41%1005 гПас прояснениями
17:00+19СЗ, 4 м/с46%1005 гПаоблачно
18:00+18СЗ, 4 м/с43%1005 гПаоблачносл. дождь
19:00+17СЗ, 5 м/с43%1005 гПаоблачно
20:00+15СЗ, 5 м/с47%1005 гПаоблачно
21:00+14СЗ, 4 м/с51%1006 гПаоблачно
22:00+13СЗ, 4 м/с56%1006 гПаоблачно
23:00+12СЗ, 4 м/с64%1006 гПас прояснениями
26 мая
00:00+10СЗ, 4 м/с71%1007 гПас прояснениями
01:00+10СЗ, 3 м/с74%1007 гПас прояснениями
02:00+9СЗ, 3 м/с80%1007 гПаясно
03:00+8СЗ, 2 м/с87%1008 гПаясно
04:00+7З, 2 м/с93%1008 гПаясно
05:00+6З, 2 м/с96%1008 гПаясно
06:00+6СЗ, 2 м/с93%1008 гПамалооблачно
07:00+8СЗ, 2 м/с85%1008 гПаоблачно
08:00+9СЗ, 2 м/с80%1008 гПаоблачно
09:00+10З, 2 м/с74%1008 гПаоблачно
10:00+12З, 3 м/с66%1009 гПаоблачно
11:00+14СЗ, 3 м/с62%1009 гПас прояснениями
12:00+15СЗ, 4 м/с56%1009 гПаоблачно
13:00+15СЗ, 4 м/с62%1010 гПаоблачносл. дождь
14:00+15СЗ, 4 м/с71%1010 гПаоблачносл. дождь
15:00+14СЗ, 4 м/с68%1011 гПаоблачнодождь